sensor_id;sensor_type;location;lat;lon;timestamp;P1;durP1;ratioP1;P2;durP2;ratioP2
13439;SDS011;6792;57.698;11.946;2023-07-08T00:02:18;9.68;;;2.75;;
13439;SDS011;6792;57.698;11.946;2023-07-08T00:04:47;4.83;;;2.45;;
13439;SDS011;6792;57.698;11.946;2023-07-08T00:07:18;5.30;;;2.62;;
13439;SDS011;6792;57.698;11.946;2023-07-08T00:09:49;6.45;;;2.72;;
13439;SDS011;6792;57.698;11.946;2023-07-08T00:12:18;6.60;;;2.58;;
13439;SDS011;6792;57.698;11.946;2023-07-08T00:14:47;5.00;;;2.60;;
13439;SDS011;6792;57.698;11.946;2023-07-08T00:17:16;4.45;;;2.50;;
13439;SDS011;6792;57.698;11.946;2023-07-08T00:19:46;5.00;;;3.10;;
13439;SDS011;6792;57.698;11.946;2023-07-08T00:22:15;4.55;;;2.77;;
13439;SDS011;6792;57.698;11.946;2023-07-08T00:24:44;8.78;;;2.87;;
13439;SDS011;6792;57.698;11.946;2023-07-08T00:27:13;9.48;;;2.85;;
13439;SDS011;6792;57.698;11.946;2023-07-08T00:29:43;5.70;;;2.87;;
13439;SDS011;6792;57.698;11.946;2023-07-08T00:32:13;5.62;;;2.50;;
13439;SDS011;6792;57.698;11.946;2023-07-08T00:34:43;4.67;;;2.52;;
13439;SDS011;6792;57.698;11.946;2023-07-08T00:37:12;4.60;;;2.55;;
13439;SDS011;6792;57.698;11.946;2023-07-08T00:39:41;5.08;;;2.80;;
13439;SDS011;6792;57.698;11.946;2023-07-08T00:42:12;4.37;;;2.45;;
13439;SDS011;6792;57.698;11.946;2023-07-08T00:44:44;6.90;;;2.62;;
13439;SDS011;6792;57.698;11.946;2023-07-08T00:47:14;5.92;;;2.77;;
13439;SDS011;6792;57.698;11.946;2023-07-08T00:49:44;9.25;;;4.05;;
13439;SDS011;6792;57.698;11.946;2023-07-08T00:52:19;7.83;;;2.70;;
13439;SDS011;6792;57.698;11.946;2023-07-08T00:54:51;4.33;;;2.35;;
13439;SDS011;6792;57.698;11.946;2023-07-08T00:57:22;6.87;;;2.92;;
13439;SDS011;6792;57.698;11.946;2023-07-08T00:59:55;3.87;;;2.60;;
13439;SDS011;6792;57.698;11.946;2023-07-08T01:02:28;5.85;;;2.90;;
13439;SDS011;6792;57.698;11.946;2023-07-08T01:05:02;7.05;;;2.90;;
13439;SDS011;6792;57.698;11.946;2023-07-08T01:07:34;6.05;;;2.58;;
13439;SDS011;6792;57.698;11.946;2023-07-08T01:10:08;7.60;;;3.02;;
13439;SDS011;6792;57.698;11.946;2023-07-08T01:12:40;4.28;;;3.10;;
13439;SDS011;6792;57.698;11.946;2023-07-08T01:15:11;4.30;;;2.65;;
13439;SDS011;6792;57.698;11.946;2023-07-08T01:17:42;6.20;;;2.72;;
13439;SDS011;6792;57.698;11.946;2023-07-08T01:20:12;6.83;;;3.00;;
13439;SDS011;6792;57.698;11.946;2023-07-08T01:22:42;6.33;;;2.83;;
13439;SDS011;6792;57.698;11.946;2023-07-08T01:25:15;7.78;;;2.92;;
13439;SDS011;6792;57.698;11.946;2023-07-08T01:27:45;7.80;;;3.62;;
13439;SDS011;6792;57.698;11.946;2023-07-08T01:30:16;5.92;;;2.62;;
13439;SDS011;6792;57.698;11.946;2023-07-08T01:32:46;6.03;;;2.90;;
13439;SDS011;6792;57.698;11.946;2023-07-08T01:35:17;5.72;;;2.90;;
13439;SDS011;6792;57.698;11.946;2023-07-08T01:37:48;4.95;;;2.90;;
13439;SDS011;6792;57.698;11.946;2023-07-08T01:40:24;6.15;;;2.90;;
13439;SDS011;6792;57.698;11.946;2023-07-08T01:42:55;5.03;;;2.70;;
13439;SDS011;6792;57.698;11.946;2023-07-08T01:45:26;4.83;;;2.30;;
13439;SDS011;6792;57.698;11.946;2023-07-08T01:47:59;5.87;;;2.65;;
13439;SDS011;6792;57.698;11.946;2023-07-08T01:50:30;8.60;;;2.62;;
13439;SDS011;6792;57.698;11.946;2023-07-08T01:53:02;5.78;;;2.87;;
13439;SDS011;6792;57.698;11.946;2023-07-08T01:55:34;15.88;;;3.10;;
13439;SDS011;6792;57.698;11.946;2023-07-08T01:58:03;7.53;;;2.45;;
13439;SDS011;6792;57.698;11.946;2023-07-08T02:00:32;5.33;;;2.90;;
13439;SDS011;6792;57.698;11.946;2023-07-08T02:03:02;9.10;;;3.17;;
13439;SDS011;6792;57.698;11.946;2023-07-08T02:05:31;5.83;;;2.95;;
13439;SDS011;6792;57.698;11.946;2023-07-08T02:08:00;6.22;;;2.70;;
13439;SDS011;6792;57.698;11.946;2023-07-08T02:10:30;5.17;;;2.55;;
13439;SDS011;6792;57.698;11.946;2023-07-08T02:12:59;3.62;;;2.22;;
13439;SDS011;6792;57.698;11.946;2023-07-08T02:15:29;5.17;;;2.42;;
13439;SDS011;6792;57.698;11.946;2023-07-08T02:17:58;12.50;;;3.52;;
13439;SDS011;6792;57.698;11.946;2023-07-08T02:20:27;6.03;;;2.50;;
13439;SDS011;6792;57.698;11.946;2023-07-08T02:22:57;8.13;;;2.60;;
13439;SDS011;6792;57.698;11.946;2023-07-08T02:25:26;7.83;;;2.40;;
13439;SDS011;6792;57.698;11.946;2023-07-08T02:27:55;7.85;;;2.67;;
13439;SDS011;6792;57.698;11.946;2023-07-08T02:30:25;6.17;;;2.92;;
13439;SDS011;6792;57.698;11.946;2023-07-08T02:32:54;5.58;;;2.60;;
13439;SDS011;6792;57.698;11.946;2023-07-08T02:35:24;8.80;;;2.42;;
13439;SDS011;6792;57.698;11.946;2023-07-08T02:37:54;7.28;;;2.45;;
13439;SDS011;6792;57.698;11.946;2023-07-08T02:40:24;5.83;;;2.40;;
13439;SDS011;6792;57.698;11.946;2023-07-08T02:42:54;5.35;;;2.62;;
13439;SDS011;6792;57.698;11.946;2023-07-08T02:45:23;4.62;;;2.55;;
13439;SDS011;6792;57.698;11.946;2023-07-08T02:47:52;5.28;;;2.90;;
13439;SDS011;6792;57.698;11.946;2023-07-08T02:50:21;8.43;;;2.77;;
13439;SDS011;6792;57.698;11.946;2023-07-08T02:52:51;8.75;;;3.15;;
13439;SDS011;6792;57.698;11.946;2023-07-08T02:55:20;4.75;;;2.72;;
13439;SDS011;6792;57.698;11.946;2023-07-08T02:57:49;4.78;;;2.12;;
13439;SDS011;6792;57.698;11.946;2023-07-08T03:00:19;4.15;;;2.50;;
13439;SDS011;6792;57.698;11.946;2023-07-08T03:02:48;5.25;;;3.20;;
13439;SDS011;6792;57.698;11.946;2023-07-08T03:05:17;4.42;;;2.45;;
13439;SDS011;6792;57.698;11.946;2023-07-08T03:07:47;4.17;;;2.50;;
13439;SDS011;6792;57.698;11.946;2023-07-08T03:10:16;7.00;;;2.80;;
13439;SDS011;6792;57.698;11.946;2023-07-08T03:12:45;6.12;;;2.70;;
13439;SDS011;6792;57.698;11.946;2023-07-08T03:15:15;4.60;;;2.40;;
13439;SDS011;6792;57.698;11.946;2023-07-08T03:17:44;7.50;;;3.12;;
13439;SDS011;6792;57.698;11.946;2023-07-08T03:20:13;7.78;;;2.77;;
13439;SDS011;6792;57.698;11.946;2023-07-08T03:22:43;5.60;;;2.77;;
13439;SDS011;6792;57.698;11.946;2023-07-08T03:25:14;7.92;;;2.45;;
13439;SDS011;6792;57.698;11.946;2023-07-08T03:27:45;8.88;;;2.83;;
13439;SDS011;6792;57.698;11.946;2023-07-08T03:30:15;8.25;;;3.00;;
13439;SDS011;6792;57.698;11.946;2023-07-08T03:32:45;5.08;;;2.52;;
13439;SDS011;6792;57.698;11.946;2023-07-08T03:35:14;8.30;;;2.67;;
13439;SDS011;6792;57.698;11.946;2023-07-08T03:37:43;5.58;;;2.67;;
13439;SDS011;6792;57.698;11.946;2023-07-08T03:40:13;4.53;;;2.30;;
13439;SDS011;6792;57.698;11.946;2023-07-08T03:42:42;5.05;;;2.65;;
13439;SDS011;6792;57.698;11.946;2023-07-08T03:45:12;5.17;;;2.50;;
13439;SDS011;6792;57.698;11.946;2023-07-08T03:47:41;6.53;;;3.05;;
13439;SDS011;6792;57.698;11.946;2023-07-08T03:50:12;4.47;;;2.52;;
13439;SDS011;6792;57.698;11.946;2023-07-08T03:52:45;6.67;;;2.75;;
13439;SDS011;6792;57.698;11.946;2023-07-08T03:55:15;10.40;;;2.72;;
13439;SDS011;6792;57.698;11.946;2023-07-08T03:57:44;6.78;;;2.37;;
13439;SDS011;6792;57.698;11.946;2023-07-08T04:00:16;7.08;;;2.58;;
13439;SDS011;6792;57.698;11.946;2023-07-08T04:02:46;8.28;;;3.00;;
13439;SDS011;6792;57.698;11.946;2023-07-08T04:05:17;3.62;;;2.62;;
13439;SDS011;6792;57.698;11.946;2023-07-08T04:07:48;9.25;;;2.50;;
13439;SDS011;6792;57.698;11.946;2023-07-08T04:10:17;7.47;;;2.95;;
13439;SDS011;6792;57.698;11.946;2023-07-08T04:12:47;6.67;;;2.40;;
13439;SDS011;6792;57.698;11.946;2023-07-08T04:15:16;4.30;;;2.35;;
13439;SDS011;6792;57.698;11.946;2023-07-08T04:17:47;6.67;;;2.98;;
13439;SDS011;6792;57.698;11.946;2023-07-08T04:20:17;7.05;;;2.47;;
13439;SDS011;6792;57.698;11.946;2023-07-08T04:22:47;7.97;;;2.85;;
13439;SDS011;6792;57.698;11.946;2023-07-08T04:25:17;7.10;;;2.95;;
13439;SDS011;6792;57.698;11.946;2023-07-08T04:27:47;6.28;;;2.35;;
13439;SDS011;6792;57.698;11.946;2023-07-08T04:30:20;3.40;;;2.25;;
13439;SDS011;6792;57.698;11.946;2023-07-08T04:32:51;5.58;;;2.83;;
13439;SDS011;6792;57.698;11.946;2023-07-08T04:35:22;6.45;;;2.50;;
13439;SDS011;6792;57.698;11.946;2023-07-08T04:37:51;7.78;;;3.05;;
13439;SDS011;6792;57.698;11.946;2023-07-08T04:40:21;6.62;;;2.52;;
13439;SDS011;6792;57.698;11.946;2023-07-08T04:42:50;6.20;;;2.75;;
13439;SDS011;6792;57.698;11.946;2023-07-08T04:45:19;6.00;;;2.47;;
13439;SDS011;6792;57.698;11.946;2023-07-08T04:47:48;8.48;;;3.08;;
13439;SDS011;6792;57.698;11.946;2023-07-08T04:50:18;4.72;;;2.37;;
13439;SDS011;6792;57.698;11.946;2023-07-08T04:52:48;8.98;;;2.98;;
13439;SDS011;6792;57.698;11.946;2023-07-08T04:55:18;10.65;;;2.98;;
13439;SDS011;6792;57.698;11.946;2023-07-08T04:57:47;6.35;;;2.60;;
13439;SDS011;6792;57.698;11.946;2023-07-08T05:00:17;5.92;;;2.90;;
13439;SDS011;6792;57.698;11.946;2023-07-08T05:02:47;5.37;;;3.20;;
13439;SDS011;6792;57.698;11.946;2023-07-08T05:05:16;6.87;;;2.67;;
13439;SDS011;6792;57.698;11.946;2023-07-08T05:07:45;5.40;;;2.40;;
13439;SDS011;6792;57.698;11.946;2023-07-08T05:10:16;9.18;;;2.33;;
13439;SDS011;6792;57.698;11.946;2023-07-08T05:12:46;7.87;;;2.52;;
13439;SDS011;6792;57.698;11.946;2023-07-08T05:15:16;3.87;;;2.27;;
13439;SDS011;6792;57.698;11.946;2023-07-08T05:17:45;5.53;;;2.45;;
13439;SDS011;6792;57.698;11.946;2023-07-08T05:20:15;7.53;;;2.87;;
13439;SDS011;6792;57.698;11.946;2023-07-08T05:22:45;8.80;;;2.95;;
13439;SDS011;6792;57.698;11.946;2023-07-08T05:25:15;4.70;;;2.60;;
13439;SDS011;6792;57.698;11.946;2023-07-08T05:27:47;9.13;;;2.60;;
13439;SDS011;6792;57.698;11.946;2023-07-08T05:30:17;6.20;;;2.65;;
13439;SDS011;6792;57.698;11.946;2023-07-08T05:32:46;5.12;;;2.55;;
13439;SDS011;6792;57.698;11.946;2023-07-08T05:35:16;12.93;;;2.98;;
13439;SDS011;6792;57.698;11.946;2023-07-08T05:37:45;7.08;;;2.42;;
13439;SDS011;6792;57.698;11.946;2023-07-08T05:40:15;8.08;;;2.75;;
13439;SDS011;6792;57.698;11.946;2023-07-08T05:42:44;4.75;;;2.20;;
13439;SDS011;6792;57.698;11.946;2023-07-08T05:45:13;8.95;;;2.85;;
13439;SDS011;6792;57.698;11.946;2023-07-08T05:47:42;7.12;;;2.55;;
13439;SDS011;6792;57.698;11.946;2023-07-08T05:50:11;10.80;;;2.42;;
13439;SDS011;6792;57.698;11.946;2023-07-08T05:52:40;8.28;;;2.65;;
13439;SDS011;6792;57.698;11.946;2023-07-08T05:55:10;8.85;;;2.72;;
13439;SDS011;6792;57.698;11.946;2023-07-08T05:57:39;9.00;;;2.45;;
13439;SDS011;6792;57.698;11.946;2023-07-08T06:00:09;6.42;;;2.27;;
13439;SDS011;6792;57.698;11.946;2023-07-08T06:02:39;7.97;;;2.22;;
13439;SDS011;6792;57.698;11.946;2023-07-08T06:05:09;5.60;;;2.47;;
13439;SDS011;6792;57.698;11.946;2023-07-08T06:07:38;8.20;;;2.02;;
13439;SDS011;6792;57.698;11.946;2023-07-08T06:10:08;4.42;;;1.90;;
13439;SDS011;6792;57.698;11.946;2023-07-08T06:12:37;6.50;;;2.10;;
13439;SDS011;6792;57.698;11.946;2023-07-08T06:15:08;4.33;;;2.15;;
13439;SDS011;6792;57.698;11.946;2023-07-08T06:17:40;5.65;;;1.92;;
13439;SDS011;6792;57.698;11.946;2023-07-08T06:20:09;8.33;;;2.00;;
13439;SDS011;6792;57.698;11.946;2023-07-08T06:22:39;5.40;;;2.17;;
13439;SDS011;6792;57.698;11.946;2023-07-08T06:25:08;5.53;;;2.30;;
13439;SDS011;6792;57.698;11.946;2023-07-08T06:27:38;6.00;;;2.22;;
13439;SDS011;6792;57.698;11.946;2023-07-08T06:30:08;6.33;;;2.52;;
13439;SDS011;6792;57.698;11.946;2023-07-08T06:32:38;5.65;;;2.08;;
13439;SDS011;6792;57.698;11.946;2023-07-08T06:35:08;8.13;;;2.25;;
13439;SDS011;6792;57.698;11.946;2023-07-08T06:37:37;5.08;;;1.98;;
13439;SDS011;6792;57.698;11.946;2023-07-08T06:40:07;6.42;;;1.77;;
13439;SDS011;6792;57.698;11.946;2023-07-08T06:42:37;9.60;;;2.58;;
13439;SDS011;6792;57.698;11.946;2023-07-08T06:45:18;5.08;;;2.10;;
13439;SDS011;6792;57.698;11.946;2023-07-08T06:47:47;3.22;;;1.90;;
13439;SDS011;6792;57.698;11.946;2023-07-08T06:50:17;5.30;;;2.15;;
13439;SDS011;6792;57.698;11.946;2023-07-08T06:52:46;3.08;;;1.80;;
13439;SDS011;6792;57.698;11.946;2023-07-08T06:55:15;7.03;;;2.10;;
13439;SDS011;6792;57.698;11.946;2023-07-08T06:57:45;3.80;;;1.72;;
13439;SDS011;6792;57.698;11.946;2023-07-08T07:00:14;3.08;;;1.80;;
13439;SDS011;6792;57.698;11.946;2023-07-08T07:02:44;4.05;;;1.80;;
13439;SDS011;6792;57.698;11.946;2023-07-08T07:05:13;3.80;;;1.90;;
13439;SDS011;6792;57.698;11.946;2023-07-08T07:07:42;4.40;;;1.70;;
13439;SDS011;6792;57.698;11.946;2023-07-08T07:10:11;4.87;;;1.80;;
13439;SDS011;6792;57.698;11.946;2023-07-08T07:12:41;3.60;;;1.90;;
13439;SDS011;6792;57.698;11.946;2023-07-08T07:15:10;4.62;;;1.90;;
13439;SDS011;6792;57.698;11.946;2023-07-08T07:17:39;4.45;;;1.87;;
13439;SDS011;6792;57.698;11.946;2023-07-08T07:20:10;4.03;;;1.82;;
13439;SDS011;6792;57.698;11.946;2023-07-08T07:22:38;4.55;;;1.87;;
13439;SDS011;6792;57.698;11.946;2023-07-08T07:25:08;4.35;;;1.77;;
13439;SDS011;6792;57.698;11.946;2023-07-08T07:27:40;4.30;;;1.98;;
13439;SDS011;6792;57.698;11.946;2023-07-08T07:30:10;4.08;;;2.02;;
13439;SDS011;6792;57.698;11.946;2023-07-08T07:32:41;3.37;;;1.82;;
13439;SDS011;6792;57.698;11.946;2023-07-08T07:35:11;4.53;;;1.87;;
13439;SDS011;6792;57.698;11.946;2023-07-08T07:37:41;2.95;;;1.80;;
13439;SDS011;6792;57.698;11.946;2023-07-08T07:40:11;4.22;;;1.90;;
13439;SDS011;6792;57.698;11.946;2023-07-08T07:42:42;6.95;;;1.80;;
13439;SDS011;6792;57.698;11.946;2023-07-08T07:45:13;5.65;;;1.72;;
13439;SDS011;6792;57.698;11.946;2023-07-08T07:47:42;4.03;;;1.60;;
13439;SDS011;6792;57.698;11.946;2023-07-08T07:50:12;3.02;;;1.62;;
13439;SDS011;6792;57.698;11.946;2023-07-08T07:52:41;3.62;;;1.72;;
13439;SDS011;6792;57.698;11.946;2023-07-08T07:55:12;1.82;;;1.60;;
13439;SDS011;6792;57.698;11.946;2023-07-08T07:57:42;6.53;;;2.35;;
13439;SDS011;6792;57.698;11.946;2023-07-08T08:00:13;4.28;;;1.80;;
13439;SDS011;6792;57.698;11.946;2023-07-08T08:02:44;3.52;;;1.60;;
13439;SDS011;6792;57.698;11.946;2023-07-08T08:05:13;5.00;;;1.95;;
13439;SDS011;6792;57.698;11.946;2023-07-08T08:07:43;4.53;;;1.98;;
13439;SDS011;6792;57.698;11.946;2023-07-08T08:10:14;2.85;;;1.77;;
13439;SDS011;6792;57.698;11.946;2023-07-08T08:12:44;3.00;;;1.50;;
13439;SDS011;6792;57.698;11.946;2023-07-08T08:15:15;4.05;;;1.67;;
13439;SDS011;6792;57.698;11.946;2023-07-08T08:17:44;3.27;;;2.12;;
13439;SDS011;6792;57.698;11.946;2023-07-08T08:20:15;3.45;;;1.57;;
13439;SDS011;6792;57.698;11.946;2023-07-08T08:22:45;5.17;;;1.98;;
13439;SDS011;6792;57.698;11.946;2023-07-08T08:25:15;3.58;;;2.05;;
13439;SDS011;6792;57.698;11.946;2023-07-08T08:27:45;4.53;;;1.77;;
13439;SDS011;6792;57.698;11.946;2023-07-08T08:30:14;3.87;;;1.85;;
13439;SDS011;6792;57.698;11.946;2023-07-08T08:32:44;3.00;;;1.85;;
13439;SDS011;6792;57.698;11.946;2023-07-08T08:35:13;6.47;;;2.30;;
13439;SDS011;6792;57.698;11.946;2023-07-08T08:37:42;3.90;;;1.75;;
13439;SDS011;6792;57.698;11.946;2023-07-08T08:40:13;1.85;;;1.65;;
13439;SDS011;6792;57.698;11.946;2023-07-08T08:42:44;3.42;;;1.72;;
13439;SDS011;6792;57.698;11.946;2023-07-08T08:45:18;4.15;;;1.60;;
13439;SDS011;6792;57.698;11.946;2023-07-08T08:47:51;1.90;;;1.50;;
13439;SDS011;6792;57.698;11.946;2023-07-08T08:50:34;2.75;;;1.62;;
13439;SDS011;6792;57.698;11.946;2023-07-08T08:53:05;3.80;;;1.90;;
13439;SDS011;6792;57.698;11.946;2023-07-08T08:55:37;3.80;;;1.70;;
13439;SDS011;6792;57.698;11.946;2023-07-08T08:58:11;3.40;;;1.67;;
13439;SDS011;6792;57.698;11.946;2023-07-08T09:00:46;4.42;;;1.45;;
13439;SDS011;6792;57.698;11.946;2023-07-08T09:03:21;3.52;;;1.80;;
13439;SDS011;6792;57.698;11.946;2023-07-08T09:05:56;2.75;;;1.30;;
13439;SDS011;6792;57.698;11.946;2023-07-08T09:08:30;2.65;;;1.40;;
13439;SDS011;6792;57.698;11.946;2023-07-08T09:11:01;3.50;;;1.25;;
13439;SDS011;6792;57.698;11.946;2023-07-08T09:13:34;3.75;;;1.77;;
13439;SDS011;6792;57.698;11.946;2023-07-08T09:16:06;3.55;;;2.20;;
13439;SDS011;6792;57.698;11.946;2023-07-08T09:18:38;2.80;;;1.70;;
13439;SDS011;6792;57.698;11.946;2023-07-08T09:21:13;6.28;;;1.65;;
13439;SDS011;6792;57.698;11.946;2023-07-08T09:23:45;2.85;;;1.60;;
13439;SDS011;6792;57.698;11.946;2023-07-08T09:26:18;4.08;;;1.70;;
13439;SDS011;6792;57.698;11.946;2023-07-08T09:28:50;2.72;;;1.47;;
13439;SDS011;6792;57.698;11.946;2023-07-08T09:31:21;3.05;;;1.62;;
13439;SDS011;6792;57.698;11.946;2023-07-08T09:33:54;2.80;;;1.42;;
13439;SDS011;6792;57.698;11.946;2023-07-08T09:36:32;2.00;;;1.32;;
13439;SDS011;6792;57.698;11.946;2023-07-08T09:39:01;3.70;;;1.30;;
13439;SDS011;6792;57.698;11.946;2023-07-08T09:41:31;3.12;;;1.60;;
13439;SDS011;6792;57.698;11.946;2023-07-08T09:44:14;5.85;;;2.17;;
13439;SDS011;6792;57.698;11.946;2023-07-08T09:46:48;3.52;;;1.60;;
13439;SDS011;6792;57.698;11.946;2023-07-08T09:49:19;2.20;;;1.40;;
13439;SDS011;6792;57.698;11.946;2023-07-08T09:51:51;2.55;;;1.67;;
13439;SDS011;6792;57.698;11.946;2023-07-08T09:54:23;3.92;;;1.17;;
13439;SDS011;6792;57.698;11.946;2023-07-08T09:56:57;5.50;;;1.52;;
13439;SDS011;6792;57.698;11.946;2023-07-08T09:59:30;1.70;;;1.30;;
13439;SDS011;6792;57.698;11.946;2023-07-08T10:02:03;3.52;;;1.50;;
13439;SDS011;6792;57.698;11.946;2023-07-08T10:04:42;2.67;;;1.70;;
13439;SDS011;6792;57.698;11.946;2023-07-08T10:07:12;4.00;;;1.60;;
13439;SDS011;6792;57.698;11.946;2023-07-08T10:09:44;3.58;;;1.95;;
13439;SDS011;6792;57.698;11.946;2023-07-08T10:12:16;3.30;;;1.50;;
13439;SDS011;6792;57.698;11.946;2023-07-08T10:14:47;3.62;;;1.72;;
13439;SDS011;6792;57.698;11.946;2023-07-08T10:17:20;2.83;;;1.72;;
13439;SDS011;6792;57.698;11.946;2023-07-08T10:19:50;4.45;;;2.00;;
13439;SDS011;6792;57.698;11.946;2023-07-08T10:22:22;3.95;;;2.00;;
13439;SDS011;6792;57.698;11.946;2023-07-08T10:25:04;3.47;;;1.60;;
13439;SDS011;6792;57.698;11.946;2023-07-08T10:27:47;4.80;;;1.60;;
13439;SDS011;6792;57.698;11.946;2023-07-08T10:30:20;2.22;;;1.60;;
13439;SDS011;6792;57.698;11.946;2023-07-08T10:35:55;4.67;;;1.90;;
13439;SDS011;6792;57.698;11.946;2023-07-08T10:38:32;3.05;;;1.57;;
13439;SDS011;6792;57.698;11.946;2023-07-08T10:41:06;4.78;;;2.00;;
13439;SDS011;6792;57.698;11.946;2023-07-08T10:43:42;5.15;;;2.08;;
13439;SDS011;6792;57.698;11.946;2023-07-08T10:46:17;2.92;;;1.42;;
13439;SDS011;6792;57.698;11.946;2023-07-08T10:49:01;6.08;;;1.82;;
13439;SDS011;6792;57.698;11.946;2023-07-08T10:51:46;4.30;;;1.62;;
13439;SDS011;6792;57.698;11.946;2023-07-08T10:54:26;5.20;;;1.80;;
13439;SDS011;6792;57.698;11.946;2023-07-08T10:57:03;1.60;;;1.50;;
13439;SDS011;6792;57.698;11.946;2023-07-08T10:59:39;3.58;;;1.70;;
13439;SDS011;6792;57.698;11.946;2023-07-08T11:02:18;3.67;;;1.70;;
13439;SDS011;6792;57.698;11.946;2023-07-08T11:04:59;3.08;;;1.77;;
13439;SDS011;6792;57.698;11.946;2023-07-08T11:07:35;1.95;;;1.50;;
13439;SDS011;6792;57.698;11.946;2023-07-08T11:10:05;2.72;;;1.50;;
13439;SDS011;6792;57.698;11.946;2023-07-08T11:12:36;1.90;;;1.45;;
13439;SDS011;6792;57.698;11.946;2023-07-08T11:15:12;3.25;;;1.52;;
13439;SDS011;6792;57.698;11.946;2023-07-08T11:17:51;5.15;;;1.60;;
13439;SDS011;6792;57.698;11.946;2023-07-08T11:20:24;3.40;;;1.70;;
13439;SDS011;6792;57.698;11.946;2023-07-08T11:22:57;3.52;;;1.67;;
13439;SDS011;6792;57.698;11.946;2023-07-08T11:25:27;2.98;;;1.62;;
13439;SDS011;6792;57.698;11.946;2023-07-08T11:27:59;2.02;;;1.55;;
13439;SDS011;6792;57.698;11.946;2023-07-08T11:30:30;2.55;;;1.47;;
13439;SDS011;6792;57.698;11.946;2023-07-08T11:33:04;2.85;;;1.50;;
13439;SDS011;6792;57.698;11.946;2023-07-08T11:35:37;4.25;;;1.87;;
13439;SDS011;6792;57.698;11.946;2023-07-08T11:38:10;3.10;;;1.77;;
13439;SDS011;6792;57.698;11.946;2023-07-08T11:40:52;3.42;;;1.70;;
13439;SDS011;6792;57.698;11.946;2023-07-08T11:43:24;2.72;;;1.60;;
13439;SDS011;6792;57.698;11.946;2023-07-08T11:45:56;2.05;;;1.60;;
13439;SDS011;6792;57.698;11.946;2023-07-08T11:48:29;4.47;;;1.95;;
13439;SDS011;6792;57.698;11.946;2023-07-08T11:50:58;2.58;;;1.60;;
13439;SDS011;6792;57.698;11.946;2023-07-08T11:53:34;4.90;;;1.57;;
13439;SDS011;6792;57.698;11.946;2023-07-08T11:56:05;3.52;;;1.50;;
13439;SDS011;6792;57.698;11.946;2023-07-08T11:58:51;4.65;;;1.85;;
13439;SDS011;6792;57.698;11.946;2023-07-08T12:01:37;2.10;;;1.35;;
13439;SDS011;6792;57.698;11.946;2023-07-08T12:04:20;3.20;;;1.82;;
13439;SDS011;6792;57.698;11.946;2023-07-08T12:07:01;5.35;;;1.87;;
13439;SDS011;6792;57.698;11.946;2023-07-08T12:09:56;2.15;;;1.40;;
13439;SDS011;6792;57.698;11.946;2023-07-08T12:12:29;3.80;;;1.77;;
13439;SDS011;6792;57.698;11.946;2023-07-08T12:15:04;3.52;;;1.62;;
13439;SDS011;6792;57.698;11.946;2023-07-08T12:17:49;2.60;;;1.50;;
13439;SDS011;6792;57.698;11.946;2023-07-08T12:20:22;3.22;;;1.82;;
13439;SDS011;6792;57.698;11.946;2023-07-08T12:22:53;5.97;;;2.20;;
13439;SDS011;6792;57.698;11.946;2023-07-08T12:25:23;3.30;;;1.82;;
13439;SDS011;6792;57.698;11.946;2023-07-08T12:27:55;3.37;;;1.75;;
13439;SDS011;6792;57.698;11.946;2023-07-08T12:30:25;4.30;;;1.75;;
13439;SDS011;6792;57.698;11.946;2023-07-08T12:32:57;3.70;;;1.50;;
13439;SDS011;6792;57.698;11.946;2023-07-08T12:35:28;2.12;;;1.80;;
13439;SDS011;6792;57.698;11.946;2023-07-08T12:37:59;2.47;;;1.40;;
13439;SDS011;6792;57.698;11.946;2023-07-08T12:40:29;3.15;;;1.77;;
13439;SDS011;6792;57.698;11.946;2023-07-08T12:42:59;3.90;;;1.92;;
13439;SDS011;6792;57.698;11.946;2023-07-08T12:45:30;2.80;;;1.72;;
13439;SDS011;6792;57.698;11.946;2023-07-08T12:48:00;5.85;;;2.10;;
13439;SDS011;6792;57.698;11.946;2023-07-08T12:50:29;5.95;;;3.08;;
13439;SDS011;6792;57.698;11.946;2023-07-08T12:52:59;7.22;;;5.05;;
13439;SDS011;6792;57.698;11.946;2023-07-08T12:55:33;4.90;;;2.55;;
13439;SDS011;6792;57.698;11.946;2023-07-08T12:58:02;4.42;;;2.30;;
13439;SDS011;6792;57.698;11.946;2023-07-08T13:00:34;5.28;;;2.40;;
13439;SDS011;6792;57.698;11.946;2023-07-08T13:03:05;5.95;;;2.40;;
13439;SDS011;6792;57.698;11.946;2023-07-08T13:05:37;7.92;;;3.70;;
13439;SDS011;6792;57.698;11.946;2023-07-08T13:08:07;8.48;;;3.95;;
13439;SDS011;6792;57.698;11.946;2023-07-08T13:10:38;3.35;;;2.47;;
13439;SDS011;6792;57.698;11.946;2023-07-08T13:13:11;5.62;;;3.33;;
13439;SDS011;6792;57.698;11.946;2023-07-08T13:15:41;10.23;;;7.47;;
13439;SDS011;6792;57.698;11.946;2023-07-08T13:18:14;8.43;;;5.80;;
13439;SDS011;6792;57.698;11.946;2023-07-08T13:20:45;9.93;;;7.15;;
13439;SDS011;6792;57.698;11.946;2023-07-08T13:23:17;6.97;;;4.25;;
13439;SDS011;6792;57.698;11.946;2023-07-08T13:25:48;6.78;;;5.25;;
13439;SDS011;6792;57.698;11.946;2023-07-08T13:28:19;5.12;;;3.15;;
13439;SDS011;6792;57.698;11.946;2023-07-08T13:30:51;4.20;;;2.33;;
13439;SDS011;6792;57.698;11.946;2023-07-08T13:33:22;3.77;;;2.27;;
13439;SDS011;6792;57.698;11.946;2023-07-08T13:35:51;3.62;;;2.30;;
13439;SDS011;6792;57.698;11.946;2023-07-08T13:38:23;3.42;;;2.40;;
13439;SDS011;6792;57.698;11.946;2023-07-08T13:40:55;3.33;;;2.20;;
13439;SDS011;6792;57.698;11.946;2023-07-08T13:43:27;4.08;;;1.90;;
13439;SDS011;6792;57.698;11.946;2023-07-08T13:45:58;2.08;;;1.72;;
13439;SDS011;6792;57.698;11.946;2023-07-08T13:48:29;5.30;;;2.60;;
13439;SDS011;6792;57.698;11.946;2023-07-08T13:51:02;3.00;;;1.65;;
13439;SDS011;6792;57.698;11.946;2023-07-08T13:53:42;2.75;;;1.62;;
13439;SDS011;6792;57.698;11.946;2023-07-08T13:56:12;1.37;;;1.25;;
13439;SDS011;6792;57.698;11.946;2023-07-08T13:58:44;2.85;;;1.27;;
13439;SDS011;6792;57.698;11.946;2023-07-08T14:01:15;3.17;;;1.50;;
13439;SDS011;6792;57.698;11.946;2023-07-08T14:03:46;2.80;;;1.40;;
13439;SDS011;6792;57.698;11.946;2023-07-08T14:06:17;2.95;;;1.30;;
13439;SDS011;6792;57.698;11.946;2023-07-08T14:08:48;1.75;;;1.47;;
13439;SDS011;6792;57.698;11.946;2023-07-08T14:11:18;2.12;;;1.40;;
13439;SDS011;6792;57.698;11.946;2023-07-08T14:13:47;2.75;;;1.30;;
13439;SDS011;6792;57.698;11.946;2023-07-08T14:16:20;2.50;;;1.40;;
13439;SDS011;6792;57.698;11.946;2023-07-08T14:18:53;1.37;;;1.27;;
13439;SDS011;6792;57.698;11.946;2023-07-08T14:21:24;1.60;;;1.45;;
13439;SDS011;6792;57.698;11.946;2023-07-08T14:23:53;4.72;;;1.75;;
13439;SDS011;6792;57.698;11.946;2023-07-08T14:26:22;3.02;;;1.05;;
13439;SDS011;6792;57.698;11.946;2023-07-08T14:28:51;3.12;;;1.35;;
13439;SDS011;6792;57.698;11.946;2023-07-08T14:31:21;1.50;;;1.40;;
13439;SDS011;6792;57.698;11.946;2023-07-08T14:33:53;3.40;;;1.47;;
13439;SDS011;6792;57.698;11.946;2023-07-08T14:36:25;2.95;;;1.50;;
13439;SDS011;6792;57.698;11.946;2023-07-08T14:38:54;2.20;;;1.70;;
13439;SDS011;6792;57.698;11.946;2023-07-08T14:41:24;1.60;;;1.47;;
13439;SDS011;6792;57.698;11.946;2023-07-08T14:43:54;2.80;;;1.67;;
13439;SDS011;6792;57.698;11.946;2023-07-08T14:46:23;3.62;;;1.50;;
13439;SDS011;6792;57.698;11.946;2023-07-08T14:48:52;2.50;;;1.50;;
13439;SDS011;6792;57.698;11.946;2023-07-08T14:51:22;2.30;;;1.35;;
13439;SDS011;6792;57.698;11.946;2023-07-08T14:53:51;5.08;;;1.77;;
13439;SDS011;6792;57.698;11.946;2023-07-08T14:56:20;3.87;;;1.77;;
13439;SDS011;6792;57.698;11.946;2023-07-08T14:58:49;2.87;;;1.60;;
13439;SDS011;6792;57.698;11.946;2023-07-08T15:01:19;2.65;;;1.30;;
13439;SDS011;6792;57.698;11.946;2023-07-08T15:03:50;2.05;;;1.50;;
13439;SDS011;6792;57.698;11.946;2023-07-08T15:06:20;2.45;;;1.47;;
13439;SDS011;6792;57.698;11.946;2023-07-08T15:08:49;2.45;;;1.42;;
13439;SDS011;6792;57.698;11.946;2023-07-08T15:11:19;3.87;;;1.42;;
13439;SDS011;6792;57.698;11.946;2023-07-08T15:13:50;1.65;;;1.30;;
13439;SDS011;6792;57.698;11.946;2023-07-08T15:16:19;2.40;;;1.50;;